Time;durP1;ratioP1;P1;durP2;ratioP2;P2;SDS_P1;SDS_P2;PMS_P1;PMS_P2;Temp;Humidity;BMP_temperature;BMP_pressure;BME280_temperature;BME280_humidity;BME280_pressure;Samples;Min_cycle;Max_cycle;Signal;HPM_P1;HPM_P2
2022/10/20 00:01:57;;;;;;;3.20;2.90;;;19.50;62.40;;;;;;5014692;28;20193;-67
2022/10/20 00:04:23;;;;;;;3.03;2.78;;;19.50;62.60;;;;;;5013588;28;20216;-68
2022/10/20 00:06:51;;;;;;;3.22;3.00;;;19.60;62.70;;;;;;5013427;28;20247;-68
2022/10/20 00:09:19;;;;;;;3.83;2.90;;;19.50;62.50;;;;;;5013307;28;20204;-68
2022/10/20 00:11:46;;;;;;;4.43;3.05;;;19.50;62.50;;;;;;5013392;28;20204;-68
2022/10/20 00:14:14;;;;;;;3.65;2.95;;;19.50;62.50;;;;;;4997624;28;20231;-68
2022/10/20 00:16:42;;;;;;;3.33;2.95;;;19.50;62.70;;;;;;5013147;28;20196;-68
2022/10/20 00:19:09;;;;;;;4.22;3.03;;;19.50;62.50;;;;;;5029728;28;20259;-68
2022/10/20 00:21:36;;;;;;;3.20;2.90;;;19.50;62.80;;;;;;5013179;28;20663;-68
2022/10/20 00:24:04;;;;;;;3.92;3.33;;;19.50;62.70;;;;;;5014452;28;20763;-68
2022/10/20 00:26:32;;;;;;;2.90;2.70;;;19.50;62.30;;;;;;5012860;28;20287;-68
2022/10/20 00:29:01;;;;;;;3.67;2.75;;;19.50;62.20;;;;;;5012931;28;20200;-68
2022/10/20 00:31:28;;;;;;;4.30;3.20;;;19.50;63.20;;;;;;5013606;28;20571;-68
2022/10/20 00:33:55;;;;;;;3.38;2.92;;;19.50;62.40;;;;;;5012887;28;20196;-68
2022/10/20 00:36:22;;;;;;;3.60;3.30;;;19.50;62.50;;;;;;5014269;28;20193;-68
2022/10/20 00:38:50;;;;;;;3.28;3.00;;;19.50;63.00;;;;;;5012892;28;20203;-68
2022/10/20 00:41:18;;;;;;;4.22;2.90;;;19.40;62.30;;;;;;5013948;28;20667;-68
2022/10/20 00:43:47;;;;;;;3.08;2.88;;;19.40;62.50;;;;;;5012783;28;20330;-68
2022/10/20 00:46:16;;;;;;;3.92;3.00;;;19.40;62.30;;;;;;5012734;28;20221;-68
2022/10/20 00:48:45;;;;;;;3.05;2.65;;;19.40;62.30;;;;;;5016387;28;20625;-68
2022/10/20 00:51:12;;;;;;;3.42;3.13;;;19.40;62.50;;;;;;5019290;28;20192;-68
2022/10/20 00:53:39;;;;;;;3.00;2.80;;;19.40;62.60;;;;;;5019218;28;20213;-68
2022/10/20 00:56:07;;;;;;;3.30;3.00;;;19.40;62.50;;;;;;5019457;28;20651;-68
2022/10/20 00:58:34;;;;;;;3.05;2.85;;;19.40;62.40;;;;;;5003145;28;20243;-68
2022/10/20 01:03:44;;;;;;;3.80;3.10;;;19.30;62.50;;;;;;5018226;28;20269;-61
2022/10/20 01:06:13;;;;;;;3.20;2.90;;;19.30;62.50;;;;;;5020297;28;20299;-61
2022/10/20 01:08:40;;;;;;;5.95;3.38;;;19.40;62.60;;;;;;5019672;28;20240;-61
2022/10/20 01:11:16;;;;;;;3.88;3.05;;;19.30;62.50;;;;;;5019912;28;20666;-62
2022/10/20 01:14:02;;;;;;;3.13;2.92;;;19.30;62.60;;;;;;5019851;28;20191;-61
2022/10/20 01:16:34;;;;;;;3.63;2.75;;;19.30;62.30;;;;;;5015670;28;20654;-61
2022/10/20 01:19:09;;;;;;;4.88;2.95;;;19.30;62.50;;;;;;5019799;28;20227;-61
2022/10/20 01:22:02;;;;;;;3.03;2.83;;;19.30;62.20;;;;;;5020145;28;20546;-63
2022/10/20 01:24:46;;;;;;;3.10;2.83;;;19.30;62.60;;;;;;5020189;28;20634;-62
2022/10/20 01:27:26;;;;;;;3.10;2.90;;;19.30;62.50;;;;;;5019511;28;20197;-62
2022/10/20 01:29:54;;;;;;;4.38;3.63;;;19.30;62.60;;;;;;5019700;28;20208;-61
2022/10/20 01:32:23;;;;;;;3.42;3.13;;;19.30;62.60;;;;;;5019980;28;20584;-61
2022/10/20 01:34:52;;;;;;;3.33;3.03;;;19.30;62.80;;;;;;5018436;28;20228;-62
2022/10/20 01:37:22;;;;;;;3.50;3.05;;;19.20;62.40;;;;;;5019530;28;20181;-61
2022/10/20 01:39:51;;;;;;;3.60;3.30;;;19.30;62.70;;;;;;5019713;28;20308;-61
2022/10/20 01:42:21;;;;;;;3.13;2.83;;;19.20;62.50;;;;;;5019748;28;20701;-61
2022/10/20 01:44:48;;;;;;;3.35;3.08;;;19.20;62.90;;;;;;5018503;28;20235;-61
2022/10/20 01:47:15;;;;;;;3.53;3.20;;;19.30;62.80;;;;;;5019757;28;20231;-61
2022/10/20 01:49:42;;;;;;;3.20;3.00;;;19.20;62.80;;;;;;5019764;28;20572;-61
2022/10/20 01:52:11;;;;;;;3.33;3.00;;;19.20;62.60;;;;;;5019249;28;20295;-61
2022/10/20 01:54:38;;;;;;;4.35;3.22;;;19.20;62.70;;;;;;5020272;28;20227;-61
2022/10/20 01:57:17;;;;;;;3.17;2.88;;;19.20;62.90;;;;;;5020198;28;20188;-61
2022/10/20 01:59:53;;;;;;;3.10;2.80;;;19.20;62.80;;;;;;5017388;28;20216;-61
2022/10/20 02:02:42;;;;;;;3.58;3.28;;;19.20;62.80;;;;;;5015148;28;20299;-61
2022/10/20 02:05:23;;;;;;;3.28;3.00;;;19.10;62.80;;;;;;5015266;28;20185;-62
2022/10/20 02:07:51;;;;;;;4.45;3.20;;;19.10;62.50;;;;;;5016308;28;20285;-61
2022/10/20 02:10:19;;;;;;;3.47;3.17;;;19.10;63.20;;;;;;5015041;28;20224;-61
2022/10/20 02:12:48;;;;;;;3.25;3.05;;;19.10;63.00;;;;;;5016317;28;20204;-62
2022/10/20 02:15:19;;;;;;;3.15;2.85;;;19.10;63.20;;;;;;5014937;28;20654;-61
2022/10/20 02:17:46;;;;;;;3.28;2.97;;;19.10;63.00;;;;;;5014777;28;20224;-62
2022/10/20 02:20:14;;;;;;;4.35;3.30;;;19.10;63.20;;;;;;5014768;28;20724;-61
2022/10/20 02:22:40;;;;;;;3.92;3.08;;;19.10;63.90;;;;;;5014840;28;20204;-62
2022/10/20 02:25:10;;;;;;;4.40;3.25;;;19.10;62.80;;;;;;5015887;28;20192;-61
2022/10/20 02:27:37;;;;;;;3.75;3.22;;;19.10;62.90;;;;;;5015805;28;20213;-61
2022/10/20 02:30:05;;;;;;;3.17;2.88;;;19.10;63.10;;;;;;5015842;28;20267;-61
2022/10/20 02:32:35;;;;;;;4.63;3.17;;;19.10;62.90;;;;;;5015587;28;20199;-62
2022/10/20 02:35:04;;;;;;;3.50;3.20;;;19.10;62.90;;;;;;5014300;28;20220;-62
2022/10/20 02:37:31;;;;;;;4.45;3.22;;;19.10;62.80;;;;;;5015647;28;20692;-62
2022/10/20 02:39:58;;;;;;;4.35;3.53;;;19.10;62.90;;;;;;5014244;28;20685;-61
2022/10/20 02:42:25;;;;;;;3.75;3.30;;;19.10;62.80;;;;;;5015667;28;20740;-61
2022/10/20 02:44:52;;;;;;;3.30;3.10;;;19.10;62.80;;;;;;5015745;28;20302;-61
2022/10/20 02:47:19;;;;;;;3.00;2.80;;;19.10;62.90;;;;;;5014289;28;20247;-61
2022/10/20 02:49:48;;;;;;;3.70;3.40;;;19.10;62.70;;;;;;5015220;28;20292;-61
2022/10/20 02:52:15;;;;;;;3.40;3.10;;;19.00;62.30;;;;;;5015459;28;20561;-62
2022/10/20 02:54:43;;;;;;;3.92;3.30;;;19.10;62.60;;;;;;5015630;28;20196;-61
2022/10/20 02:57:10;;;;;;;3.53;3.25;;;19.10;62.60;;;;;;5014217;28;20319;-61
2022/10/20 02:59:37;;;;;;;5.20;3.38;;;19.10;62.60;;;;;;5013889;28;20217;-62
2022/10/20 03:02:05;;;;;;;3.65;3.30;;;19.10;62.40;;;;;;5013882;28;20209;-61
2022/10/20 03:04:32;;;;;;;5.45;3.67;;;19.10;62.20;;;;;;5015206;28;20201;-60
2022/10/20 03:07:00;;;;;;;3.78;3.47;;;19.10;62.10;;;;;;5013826;28;20231;-62
2022/10/20 03:09:28;;;;;;;4.00;3.45;;;19.10;61.70;;;;;;5015259;28;20209;-60
2022/10/20 03:11:55;;;;;;;3.40;3.10;;;19.10;62.10;;;;;;5014999;28;20201;-60
2022/10/20 03:14:22;;;;;;;4.75;3.35;;;19.10;62.00;;;;;;5014102;28;20296;-61
2022/10/20 03:16:49;;;;;;;3.53;3.22;;;19.10;62.00;;;;;;5015218;28;20185;-61
2022/10/20 03:19:16;;;;;;;3.35;3.05;;;19.10;62.00;;;;;;5015369;28;20283;-61
2022/10/20 03:21:45;;;;;;;5.20;3.13;;;19.10;62.50;;;;;;5013918;28;20247;-61
2022/10/20 03:24:15;;;;;;;4.05;3.33;;;19.10;62.90;;;;;;5015256;28;20239;-61
2022/10/20 03:26:42;;;;;;;4.10;3.30;;;19.20;62.90;;;;;;5014918;28;20200;-60
2022/10/20 03:29:09;;;;;;;3.20;2.90;;;19.20;62.60;;;;;;5014495;28;20219;-61
2022/10/20 03:31:36;;;;;;;3.40;3.08;;;19.30;62.50;;;;;;5013854;28;20300;-60
2022/10/20 03:34:04;;;;;;;3.53;3.22;;;19.30;62.30;;;;;;5015266;28;20243;-60
2022/10/20 03:36:31;;;;;;;3.88;3.15;;;19.40;62.10;;;;;;5014464;28;20682;-60
2022/10/20 03:38:58;;;;;;;3.50;3.20;;;19.40;62.10;;;;;;5014804;28;20213;-60
2022/10/20 03:41:27;;;;;;;3.42;3.13;;;19.40;61.70;;;;;;5014442;28;20586;-60
2022/10/20 03:43:54;;;;;;;3.30;3.10;;;19.50;61.60;;;;;;5013736;28;20666;-62
2022/10/20 03:46:21;;;;;;;3.70;3.40;;;19.50;61.60;;;;;;5013554;28;20279;-61
2022/10/20 03:48:48;;;;;;;4.38;3.50;;;19.50;61.30;;;;;;5013042;28;20247;-61
2022/10/20 03:51:15;;;;;;;3.55;3.25;;;19.50;61.20;;;;;;5013235;28;20201;-61
2022/10/20 03:53:42;;;;;;;3.58;3.25;;;19.60;61.30;;;;;;5014494;28;20223;-61
2022/10/20 03:56:10;;;;;;;3.63;3.33;;;19.60;61.10;;;;;;5014331;28;20223;-62
2022/10/20 03:58:38;;;;;;;3.38;2.97;;;19.60;61.00;;;;;;5012818;28;20224;-61
2022/10/20 04:01:08;;;;;;;3.55;3.25;;;19.60;60.90;;;;;;5014336;28;20189;-61
2022/10/20 04:03:35;;;;;;;3.45;3.00;;;19.60;61.10;;;;;;5014847;28;20232;-61
2022/10/20 04:06:02;;;;;;;4.32;3.65;;;19.60;60.90;;;;;;5012823;28;20304;-61
2022/10/20 04:08:29;;;;;;;4.40;3.40;;;19.60;60.90;;;;;;5012578;28;20225;-61
2022/10/20 04:10:57;;;;;;;3.90;3.35;;;19.60;60.90;;;;;;5013883;28;20193;-61
2022/10/20 04:13:24;;;;;;;3.70;3.40;;;19.60;60.90;;;;;;5014222;28;20196;-61
2022/10/20 04:15:53;;;;;;;3.70;3.40;;;19.60;60.80;;;;;;5012974;28;20205;-61
2022/10/20 04:18:20;;;;;;;3.33;3.10;;;19.60;60.80;;;;;;5014198;28;20316;-61
2022/10/20 04:20:47;;;;;;;4.90;3.30;;;19.60;60.90;;;;;;5012725;28;20200;-61
2022/10/20 04:23:15;;;;;;;3.38;3.08;;;19.50;60.70;;;;;;5012137;28;20205;-62
2022/10/20 04:25:44;;;;;;;4.80;3.70;;;19.60;60.80;;;;;;5012523;28;20208;-61
2022/10/20 04:28:12;;;;;;;3.45;3.15;;;19.60;60.60;;;;;;5012091;28;20215;-61
2022/10/20 04:30:39;;;;;;;4.00;3.08;;;19.50;60.40;;;;;;5013730;28;20203;-62
2022/10/20 04:33:07;;;;;;;3.70;3.40;;;19.50;60.50;;;;;;5013560;28;20200;-61
2022/10/20 04:35:35;;;;;;;4.13;3.72;;;19.50;60.60;;;;;;5012130;28;20291;-61
2022/10/20 04:38:02;;;;;;;3.78;3.47;;;19.50;60.70;;;;;;5013574;28;20181;-61
2022/10/20 04:40:30;;;;;;;4.03;3.40;;;19.50;60.70;;;;;;5012094;28;20220;-62
2022/10/20 04:42:58;;;;;;;3.83;3.50;;;19.50;60.60;;;;;;5013541;28;20189;-62
2022/10/20 04:45:25;;;;;;;3.70;3.40;;;19.50;60.70;;;;;;5013458;28;20189;-62
2022/10/20 04:47:52;;;;;;;3.88;3.53;;;19.50;60.90;;;;;;5012175;28;20282;-62
2022/10/20 04:50:21;;;;;;;3.88;3.42;;;19.50;60.80;;;;;;5011945;28;20217;-62
2022/10/20 04:52:59;;;;;;;4.82;3.38;;;19.40;60.60;;;;;;5012150;28;20216;-62
2022/10/20 04:55:26;;;;;;;3.95;3.65;;;19.50;60.70;;;;;;5012005;28;20287;-62
2022/10/20 04:57:53;;;;;;;3.97;3.60;;;19.40;60.80;;;;;;5012075;28;20195;-62
2022/10/20 05:00:20;;;;;;;3.35;2.97;;;19.40;60.80;;;;;;5013300;28;20579;-63
2022/10/20 05:02:47;;;;;;;3.72;3.22;;;19.40;61.10;;;;;;5013067;28;20193;-62
2022/10/20 05:05:14;;;;;;;3.72;3.42;;;19.40;61.00;;;;;;5011960;28;20201;-62
2022/10/20 05:07:43;;;;;;;4.70;3.63;;;19.40;61.10;;;;;;5012116;28;20771;-62
2022/10/20 05:10:10;;;;;;;4.10;3.70;;;19.40;60.80;;;;;;5012026;28;20320;-62
2022/10/20 05:12:37;;;;;;;4.32;3.90;;;19.40;60.60;;;;;;5012120;28;20193;-61
2022/10/20 05:15:05;;;;;;;4.32;3.92;;;19.40;60.90;;;;;;5013511;28;20228;-62
2022/10/20 05:17:33;;;;;;;4.45;4.05;;;19.40;61.10;;;;;;5013375;28;20189;-61
2022/10/20 05:19:59;;;;;;;5.25;4.22;;;19.40;61.80;;;;;;5012369;28;20222;-62
2022/10/20 05:22:27;;;;;;;6.43;3.80;;;19.40;61.90;;;;;;5012076;28;20658;-61
2022/10/20 05:24:55;;;;;;;5.93;4.30;;;19.30;62.40;;;;;;5013370;28;20189;-61
2022/10/20 05:27:22;;;;;;;5.47;4.10;;;19.30;62.20;;;;;;5011939;28;20196;-62
2022/10/20 05:29:49;;;;;;;5.50;4.32;;;19.30;62.20;;;;;;5013073;28;20694;-62
2022/10/20 05:32:16;;;;;;;4.97;4.47;;;19.30;62.50;;;;;;5013296;28;20197;-61
2022/10/20 05:34:44;;;;;;;4.43;4.03;;;19.30;62.80;;;;;;5013554;28;20692;-61
2022/10/20 05:37:11;;;;;;;6.15;3.97;;;19.40;63.10;;;;;;5017295;28;20272;-62
2022/10/20 05:39:39;;;;;;;6.13;4.43;;;19.40;62.80;;;;;;5016845;28;20270;-62
2022/10/20 05:42:07;;;;;;;5.90;4.38;;;19.40;62.70;;;;;;5016770;28;20200;-62
2022/10/20 05:44:35;;;;;;;3.80;3.50;;;19.40;62.20;;;;;;5016461;28;20197;-62
2022/10/20 05:47:02;;;;;;;3.97;3.58;;;19.40;63.10;;;;;;5015967;28;20196;-62
2022/10/20 05:49:29;;;;;;;4.05;3.72;;;19.40;63.00;;;;;;5015913;28;20260;-61
2022/10/20 05:51:56;;;;;;;5.25;3.70;;;19.40;63.00;;;;;;5017201;28;20276;-62
2022/10/20 05:54:24;;;;;;;4.57;4.18;;;19.40;62.90;;;;;;5016557;28;20291;-63
2022/10/20 05:56:50;;;;;;;4.40;4.00;;;19.40;62.70;;;;;;5016150;28;20754;-61
2022/10/20 05:59:19;;;;;;;4.25;3.85;;;19.40;62.20;;;;;;5015823;28;20236;-63
2022/10/20 06:01:48;;;;;;;4.75;3.70;;;19.40;62.30;;;;;;5016634;28;20197;-62
2022/10/20 06:04:16;;;;;;;3.92;3.60;;;19.40;61.90;;;;;;5015548;28;20725;-62
2022/10/20 06:06:44;;;;;;;4.60;3.50;;;19.40;62.10;;;;;;5015500;28;20254;-62
2022/10/20 06:09:11;;;;;;;3.63;3.10;;;19.40;62.10;;;;;;5015508;28;20225;-62
2022/10/20 06:11:39;;;;;;;4.25;3.65;;;19.40;62.50;;;;;;5015955;28;20255;-62
2022/10/20 06:14:06;;;;;;;4.97;3.45;;;19.40;62.30;;;;;;5019092;28;20208;-66
2022/10/20 06:16:34;;;;;;;3.80;3.50;;;19.50;62.50;;;;;;5018938;28;20616;-63
2022/10/20 06:19:01;;;;;;;3.88;3.58;;;19.50;62.00;;;;;;5015363;28;20736;-63
2022/10/20 06:21:29;;;;;;;4.22;3.88;;;19.50;62.20;;;;;;5015177;28;20559;-62
2022/10/20 06:23:58;;;;;;;4.28;3.88;;;19.50;61.00;;;;;;5016458;28;20193;-62
2022/10/20 06:26:28;;;;;;;3.90;3.60;;;19.50;61.40;;;;;;5016024;28;20192;-62
2022/10/20 06:28:56;;;;;;;4.57;3.85;;;19.50;61.30;;;;;;5014656;28;20319;-62
2022/10/20 06:31:24;;;;;;;3.97;3.58;;;19.50;61.20;;;;;;5016115;28;20216;-62
2022/10/20 06:33:53;;;;;;;4.45;3.42;;;19.60;61.00;;;;;;5015887;28;20284;-63
2022/10/20 06:36:21;;;;;;;5.13;3.88;;;19.60;61.10;;;;;;5016074;28;20658;-62
2022/10/20 06:38:48;;;;;;;3.88;3.58;;;19.60;61.00;;;;;;5014559;28;20247;-62
2022/10/20 06:41:16;;;;;;;4.32;3.65;;;19.60;60.80;;;;;;5015922;28;20193;-62
2022/10/20 06:43:43;;;;;;;5.50;4.07;;;19.60;60.80;;;;;;5015836;28;20666;-62
2022/10/20 06:46:11;;;;;;;3.80;3.50;;;19.60;60.60;;;;;;5015254;28;20303;-62
2022/10/20 06:48:39;;;;;;;3.60;3.30;;;19.60;60.40;;;;;;5015259;28;20236;-62
2022/10/20 06:51:09;;;;;;;3.47;3.17;;;19.70;60.30;;;;;;5014295;28;20197;-62
2022/10/20 06:53:36;;;;;;;3.78;3.45;;;19.70;60.20;;;;;;5014419;28;20219;-62
2022/10/20 06:56:06;;;;;;;3.25;2.95;;;19.70;60.20;;;;;;5015398;28;20196;-62
2022/10/20 06:58:33;;;;;;;3.67;3.38;;;19.70;60.10;;;;;;5014037;28;20737;-62
2022/10/20 07:01:01;;;;;;;4.25;3.45;;;19.70;60.00;;;;;;5015297;28;20282;-62
2022/10/20 07:03:28;;;;;;;5.07;3.60;;;19.80;60.10;;;;;;5014030;28;20205;-62
2022/10/20 07:05:55;;;;;;;3.55;3.25;;;19.80;60.00;;;;;;5014123;28;20292;-62
2022/10/20 07:08:24;;;;;;;4.25;3.40;;;19.80;59.90;;;;;;5013639;28;20216;-62
2022/10/20 07:11:00;;;;;;;3.50;3.20;;;19.90;59.90;;;;;;5015504;28;20271;-64
2022/10/20 07:13:27;;;;;;;4.35;3.17;;;19.90;59.80;;;;;;5016248;28;20169;-62
2022/10/20 07:15:54;;;;;;;4.32;3.42;;;20.00;59.70;;;;;;5013729;28;20193;-62
2022/10/20 07:18:22;;;;;;;3.72;3.42;;;20.00;59.70;;;;;;5013587;28;20204;-62
2022/10/20 07:20:50;;;;;;;3.60;3.30;;;20.10;59.70;;;;;;5014735;28;20197;-62
2022/10/20 07:23:17;;;;;;;3.70;3.40;;;20.20;59.60;;;;;;5015032;28;20189;-62
2022/10/20 07:25:45;;;;;;;4.55;3.03;;;20.20;59.50;;;;;;5014600;28;20247;-61
2022/10/20 07:28:13;;;;;;;3.60;3.30;;;20.30;59.30;;;;;;5014511;28;20690;-62
2022/10/20 07:30:40;;;;;;;3.53;3.00;;;20.30;59.10;;;;;;5013266;28;20275;-61
2022/10/20 07:33:07;;;;;;;3.63;2.83;;;20.30;59.10;;;;;;5013584;28;20205;-62
2022/10/20 07:35:34;;;;;;;4.53;2.88;;;20.40;59.20;;;;;;5014437;28;20197;-61
2022/10/20 07:38:02;;;;;;;3.30;3.00;;;20.40;59.10;;;;;;5014559;28;20705;-62
2022/10/20 07:40:29;;;;;;;3.35;3.05;;;20.40;59.10;;;;;;5014363;28;20216;-62
2022/10/20 07:42:57;;;;;;;3.65;3.35;;;20.50;59.00;;;;;;5013422;28;20243;-62
2022/10/20 07:45:25;;;;;;;3.47;3.17;;;20.50;58.90;;;;;;5014252;28;20196;-61
2022/10/20 07:47:52;;;;;;;3.13;2.83;;;20.60;58.90;;;;;;5014478;28;20193;-61
2022/10/20 07:50:19;;;;;;;3.08;2.88;;;20.60;58.80;;;;;;5012872;28;20224;-62
2022/10/20 07:52:50;;;;;;;3.08;2.80;;;20.70;58.70;;;;;;5012866;28;20197;-62
2022/10/20 07:55:18;;;;;;;3.17;2.88;;;20.90;58.50;;;;;;5014414;28;20173;-62
2022/10/20 07:57:45;;;;;;;2.75;2.55;;;21.00;58.20;;;;;;5013235;28;20197;-61
2022/10/20 08:00:14;;;;;;;3.08;2.78;;;21.20;58.00;;;;;;5012778;28;20212;-62
2022/10/20 08:02:42;;;;;;;3.10;2.80;;;21.30;57.60;;;;;;5012796;28;20263;-62
2022/10/20 08:05:09;;;;;;;2.90;2.70;;;21.40;57.50;;;;;;5014205;28;20662;-62
2022/10/20 08:07:36;;;;;;;2.80;2.60;;;21.50;57.10;;;;;;5012945;28;20219;-62
2022/10/20 08:10:04;;;;;;;3.72;3.10;;;21.60;56.80;;;;;;5014456;28;20219;-62
2022/10/20 08:12:31;;;;;;;3.08;2.78;;;21.70;56.60;;;;;;5014306;28;20199;-63
2022/10/20 08:14:58;;;;;;;2.88;2.67;;;21.70;56.50;;;;;;5014324;28;20603;-62
2022/10/20 08:17:26;;;;;;;3.35;3.08;;;21.70;56.30;;;;;;5014252;28;20267;-62
2022/10/20 08:19:53;;;;;;;3.00;2.80;;;21.70;56.30;;;;;;5013224;28;20655;-62
2022/10/20 08:22:20;;;;;;;2.80;2.58;;;21.80;56.30;;;;;;5013625;28;20236;-62
2022/10/20 08:24:47;;;;;;;2.80;2.60;;;21.80;56.30;;;;;;5014217;28;20192;-61
2022/10/20 08:27:15;;;;;;;2.70;2.50;;;21.90;57.00;;;;;;5014408;28;20197;-62
2022/10/20 08:29:41;;;;;;;2.60;2.40;;;21.90;56.20;;;;;;5012649;28;20220;-62
2022/10/20 08:32:11;;;;;;;2.50;2.30;;;22.00;56.20;;;;;;5014250;28;20192;-62
2022/10/20 08:34:39;;;;;;;2.38;2.17;;;22.00;56.20;;;;;;5012447;28;20207;-62
2022/10/20 08:37:07;;;;;;;2.38;2.17;;;22.10;56.10;;;;;;5012464;28;20292;-62
2022/10/20 08:39:34;;;;;;;3.10;2.22;;;22.20;56.10;;;;;;5013619;28;20209;-61
2022/10/20 08:42:01;;;;;;;2.58;2.38;;;22.20;55.80;;;;;;5012278;28;20196;-62
2022/10/20 08:44:30;;;;;;;2.47;2.28;;;22.20;55.70;;;;;;5013453;28;20197;-62
2022/10/20 08:46:57;;;;;;;2.47;2.00;;;22.30;55.70;;;;;;5013498;28;20208;-62
2022/10/20 08:49:25;;;;;;;2.70;2.50;;;22.30;55.60;;;;;;5012059;28;20716;-62
2022/10/20 08:51:54;;;;;;;2.47;2.28;;;22.30;55.50;;;;;;5012282;28;20275;-62
2022/10/20 08:54:20;;;;;;;2.33;2.17;;;22.40;55.40;;;;;;5012025;28;20196;-62
2022/10/20 08:56:48;;;;;;;2.40;2.00;;;22.40;55.40;;;;;;5012337;28;20205;-62
2022/10/20 08:59:27;;;;;;;2.47;2.10;;;22.50;55.30;;;;;;5011915;28;20224;-62
2022/10/20 09:01:54;;;;;;;2.17;2.08;;;22.50;55.10;;;;;;5011952;28;20211;-62
2022/10/20 09:04:22;;;;;;;2.15;2.05;;;22.60;54.90;;;;;;5011867;28;20200;-62
2022/10/20 09:06:53;;;;;;;2.45;2.25;;;22.60;54.70;;;;;;5013290;28;20222;-63
2022/10/20 09:09:21;;;;;;;2.33;2.13;;;22.70;54.80;;;;;;5014545;28;20217;-62
2022/10/20 09:11:48;;;;;;;2.08;1.98;;;22.70;54.60;;;;;;5017198;28;20192;-62
2022/10/20 09:14:16;;;;;;;2.42;2.22;;;22.80;54.50;;;;;;5017188;28;20193;-62
2022/10/20 09:16:45;;;;;;;2.00;1.90;;;22.80;54.40;;;;;;5015923;28;20688;-62
2022/10/20 09:19:15;;;;;;;2.28;2.08;;;22.90;54.30;;;;;;5015835;28;20237;-63
2022/10/20 09:21:43;;;;;;;1.90;1.80;;;22.90;54.20;;;;;;5015899;28;20192;-62
2022/10/20 09:24:11;;;;;;;2.40;2.20;;;23.00;54.10;;;;;;5015972;28;20197;-62
2022/10/20 09:26:40;;;;;;;2.13;1.88;;;23.00;53.90;;;;;;5017383;28;20189;-62
2022/10/20 09:29:09;;;;;;;2.22;2.03;;;23.00;53.80;;;;;;5016019;28;20213;-63
2022/10/20 09:31:37;;;;;;;2.00;1.90;;;23.10;53.70;;;;;;5016954;28;20195;-62
2022/10/20 09:34:19;;;;;;;2.00;1.90;;;23.00;53.80;;;;;;5017036;28;20196;-63
2022/10/20 09:36:46;;;;;;;2.20;2.00;;;23.00;53.90;;;;;;5015718;28;20193;-62
2022/10/20 09:39:19;;;;;;;1.88;1.77;;;22.90;54.00;;;;;;5016747;28;20207;-62
2022/10/20 09:41:45;;;;;;;1.80;1.70;;;22.90;54.00;;;;;;5015399;28;20193;-62
2022/10/20 09:44:14;;;;;;;2.25;2.05;;;22.80;54.10;;;;;;5015496;28;20197;-62
2022/10/20 09:46:45;;;;;;;2.08;1.98;;;22.80;54.20;;;;;;5015348;28;20554;-62
2022/10/20 09:49:22;;;;;;;2.13;2.03;;;22.70;54.10;;;;;;5015665;28;20304;-62
2022/10/20 09:51:49;;;;;;;2.00;1.88;;;22.70;54.30;;;;;;5015179;28;20224;-62
2022/10/20 09:54:18;;;;;;;1.90;1.80;;;22.70;54.40;;;;;;5016677;28;20189;-62
2022/10/20 09:56:48;;;;;;;2.10;2.00;;;22.60;54.30;;;;;;5016427;28;20596;-62
2022/10/20 09:59:20;;;;;;;2.00;1.90;;;22.60;54.40;;;;;;5016259;28;20713;-62
2022/10/20 10:01:54;;;;;;;2.08;1.98;;;22.60;54.50;;;;;;5014802;28;20286;-62
2022/10/20 10:04:33;;;;;;;1.90;1.80;;;22.60;54.60;;;;;;5016381;28;20192;-63
2022/10/20 10:07:01;;;;;;;2.03;1.83;;;22.50;54.50;;;;;;5016622;28;20209;-62
2022/10/20 10:09:33;;;;;;;1.90;1.80;;;22.50;54.60;;;;;;5015920;28;20263;-62
2022/10/20 10:12:02;;;;;;;1.85;1.75;;;22.50;54.70;;;;;;5014694;28;20207;-61
2022/10/20 10:14:29;;;;;;;2.10;2.00;;;22.50;54.70;;;;;;5015992;28;20246;-62
2022/10/20 10:16:56;;;;;;;1.83;1.73;;;22.50;54.80;;;;;;5014887;28;20565;-62
2022/10/20 10:19:25;;;;;;;2.10;2.00;;;22.50;54.80;;;;;;5015997;28;20283;-62
2022/10/20 10:21:53;;;;;;;2.00;1.90;;;22.50;54.80;;;;;;5014836;28;20189;-61
2022/10/20 10:24:41;;;;;;;1.95;1.75;;;22.40;54.70;;;;;;5014437;28;20200;-62
2022/10/20 10:27:19;;;;;;;2.15;1.95;;;22.50;54.90;;;;;;5014648;28;20197;-61
2022/10/20 10:29:46;;;;;;;2.38;1.83;;;22.40;54.70;;;;;;5015561;28;20209;-62
2022/10/20 10:32:15;;;;;;;1.95;1.75;;;22.50;54.80;;;;;;5015654;28;20262;-61
2022/10/20 10:35:01;;;;;;;1.90;1.80;;;22.50;54.80;;;;;;5014384;28;20259;-61
2022/10/20 10:37:28;;;;;;;2.00;1.90;;;22.50;54.90;;;;;;5014226;28;20205;-61
2022/10/20 10:39:56;;;;;;;2.00;1.90;;;22.50;54.80;;;;;;5014082;28;20299;-62
2022/10/20 10:42:53;;;;;;;2.03;1.92;;;22.40;54.80;;;;;;5015485;28;20189;-61
2022/10/20 10:45:28;;;;;;;2.13;1.98;;;22.40;54.80;;;;;;5013917;28;20215;-61
2022/10/20 10:48:07;;;;;;;2.05;1.90;;;22.40;54.90;;;;;;5014020;28;20196;-61
2022/10/20 10:50:36;;;;;;;1.85;1.75;;;22.50;54.90;;;;;;5015305;28;20738;-61
2022/10/20 10:53:11;;;;;;;1.92;1.73;;;22.40;54.80;;;;;;5015230;28;20223;-61
2022/10/20 10:55:44;;;;;;;1.90;1.80;;;22.50;54.90;;;;;;5015488;28;20184;-61
2022/10/20 10:58:17;;;;;;;1.90;1.67;;;22.40;54.80;;;;;;5015144;28;20208;-61
2022/10/20 11:00:47;;;;;;;2.10;1.98;;;22.40;55.00;;;;;;5013948;28;20193;-61
2022/10/20 11:03:27;;;;;;;2.05;1.90;;;22.40;55.00;;;;;;5015197;28;20193;-62
2022/10/20 11:06:09;;;;;;;1.90;1.80;;;22.30;55.20;;;;;;5015513;28;20176;-61
2022/10/20 11:08:45;;;;;;;2.08;1.80;;;22.40;55.30;;;;;;5013718;28;20728;-62
2022/10/20 11:11:19;;;;;;;1.90;1.80;;;22.30;55.30;;;;;;5014942;28;20207;-61
2022/10/20 11:13:49;;;;;;;1.88;1.77;;;22.30;55.40;;;;;;5014964;28;20187;-62
2022/10/20 11:16:23;;;;;;;2.05;1.95;;;22.30;55.40;;;;;;5013513;28;20189;-61
2022/10/20 11:19:22;;;;;;;2.10;2.00;;;22.20;55.40;;;;;;5013588;28;20221;-61
2022/10/20 11:21:56;;;;;;;2.00;1.90;;;22.20;55.40;;;;;;5014864;28;20662;-61
2022/10/20 11:24:40;;;;;;;2.13;2.03;;;22.20;55.40;;;;;;5013391;28;20634;-61
2022/10/20 11:27:10;;;;;;;2.20;1.90;;;22.20;55.40;;;;;;5013408;28;20193;-61
2022/10/20 11:29:40;;;;;;;1.85;1.67;;;22.20;55.40;;;;;;5013176;28;20591;-61
2022/10/20 11:32:11;;;;;;;1.85;1.75;;;22.30;55.50;;;;;;5014485;28;20193;-61
2022/10/20 11:34:40;;;;;;;1.80;1.70;;;22.30;55.40;;;;;;5014719;28;20191;-61
2022/10/20 11:37:13;;;;;;;1.88;1.77;;;22.30;55.40;;;;;;5013245;28;20200;-61
2022/10/20 11:39:42;;;;;;;2.30;2.10;;;22.30;55.40;;;;;;5014340;28;20247;-62
2022/10/20 11:42:17;;;;;;;2.00;1.90;;;22.30;55.30;;;;;;5014385;28;20189;-61
2022/10/20 11:44:45;;;;;;;1.90;1.80;;;22.30;55.30;;;;;;5012975;28;20700;-62
2022/10/20 11:47:12;;;;;;;2.05;1.95;;;22.30;55.30;;;;;;5014478;28;20185;-61
2022/10/20 11:49:39;;;;;;;2.30;2.10;;;22.30;55.30;;;;;;5012850;28;20217;-62
2022/10/20 11:52:33;;;;;;;2.10;2.00;;;22.30;55.20;;;;;;5014215;28;20193;-62
2022/10/20 11:55:07;;;;;;;1.88;1.77;;;22.30;55.20;;;;;;5012797;28;20200;-61
2022/10/20 11:57:42;;;;;;;1.80;1.70;;;22.30;55.20;;;;;;5014368;28;20193;-61
2022/10/20 12:00:31;;;;;;;2.00;1.90;;;22.30;55.20;;;;;;5013156;28;20311;-63
2022/10/20 12:03:38;;;;;;;2.15;1.67;;;22.30;55.30;;;;;;5012819;28;20208;-63
2022/10/20 12:06:32;;;;;;;1.98;1.88;;;22.30;55.30;;;;;;4980675;28;20200;-63
2022/10/20 12:09:33;;;;;;;1.90;1.80;;;22.30;55.30;;;;;;5001523;28;20713;-63
2022/10/20 12:12:02;;;;;;;2.13;2.00;;;22.30;55.30;;;;;;4971529;28;20227;-62
2022/10/20 12:14:33;;;;;;;2.45;1.75;;;22.30;55.40;;;;;;5013988;28;20197;-62
2022/10/20 12:17:14;;;;;;;2.17;2.08;;;22.30;55.40;;;;;;5012672;28;20516;-63
2022/10/20 12:19:42;;;;;;;2.00;1.90;;;22.30;55.40;;;;;;5013931;28;20205;-64
2022/10/20 12:22:39;;;;;;;2.50;2.13;;;22.30;55.40;;;;;;5012609;28;20209;-63
2022/10/20 12:25:35;;;;;;;2.20;2.00;;;22.20;55.40;;;;;;5012771;28;20192;-64
2022/10/20 12:28:32;;;;;;;2.10;2.00;;;22.20;55.40;;;;;;4968423;28;20250;-62
2022/10/20 12:31:01;;;;;;;2.00;1.80;;;22.20;55.50;;;;;;5012643;28;20697;-64
2022/10/20 12:33:42;;;;;;;3.28;2.00;;;22.20;55.60;;;;;;5014444;28;20276;-64
2022/10/20 12:36:31;;;;;;;2.28;2.08;;;22.20;56.10;;;;;;5012510;28;20201;-63
2022/10/20 12:39:18;;;;;;;2.38;2.17;;;22.20;55.50;;;;;;5014060;28;20386;-64
2022/10/20 12:41:55;;;;;;;1.90;1.80;;;22.20;55.50;;;;;;5012805;28;20637;-63
2022/10/20 12:44:22;;;;;;;1.92;1.80;;;22.20;55.60;;;;;;5012088;28;20206;-63
2022/10/20 12:46:54;;;;;;;2.33;1.90;;;22.20;55.60;;;;;;5013748;28;20201;-63
2022/10/20 12:49:25;;;;;;;1.92;1.83;;;22.20;55.60;;;;;;5013996;28;20212;-64
2022/10/20 12:51:52;;;;;;;2.13;1.92;;;22.20;55.60;;;;;;5013858;28;20292;-63
2022/10/20 12:54:22;;;;;;;2.10;2.00;;;22.20;55.60;;;;;;5012343;28;20279;-63
2022/10/20 12:56:49;;;;;;;2.00;1.90;;;22.20;55.60;;;;;;5013945;28;20196;-63
2022/10/20 12:59:46;;;;;;;2.20;2.10;;;22.20;55.60;;;;;;5013878;28;20629;-63
2022/10/20 13:02:49;;;;;;;2.15;1.88;;;22.20;55.60;;;;;;5050408;22;20240;-64
2022/10/20 13:05:47;;;;;;;2.10;2.00;;;22.10;55.60;;;;;;5012639;28;20287;-64
2022/10/20 13:08:33;;;;;;;2.30;2.10;;;22.10;55.60;;;;;;5012389;28;20193;-64